createdAt,value
2019-03-02T00:00:04.328Z,16.93
2019-03-02T00:02:37.416Z,19.67
2019-03-02T00:05:08.660Z,21.40
2019-03-02T00:07:43.827Z,22.67
2019-03-02T00:10:14.872Z,20.17
2019-03-02T00:12:46.396Z,21.13
2019-03-02T00:15:17.642Z,23.83
2019-03-02T00:17:50.565Z,25.23
2019-03-02T00:20:22.516Z,21.93
2019-03-02T00:22:54.015Z,21.77
2019-03-02T00:25:26.109Z,24.20
2019-03-02T00:27:58.167Z,22.93
2019-03-02T00:30:30.644Z,25.53
2019-03-02T00:33:02.333Z,26.30
2019-03-02T00:35:33.570Z,27.27
2019-03-02T00:38:08.778Z,28.73
2019-03-02T00:40:38.449Z,23.40
2019-03-02T00:43:09.832Z,23.20
2019-03-02T00:45:41.002Z,24.07
2019-03-02T00:48:12.490Z,24.60
2019-03-02T00:50:43.903Z,25.30
2019-03-02T00:53:15.205Z,24.80
2019-03-02T00:55:46.652Z,23.90
2019-03-02T00:58:18.110Z,23.60
2019-03-02T01:00:50.062Z,23.90
2019-03-02T01:03:22.243Z,28.50
2019-03-02T01:05:53.370Z,27.77
2019-03-02T01:08:24.760Z,29.80
2019-03-02T01:10:58.175Z,26.97
2019-03-02T01:13:29.094Z,30.53
2019-03-02T01:16:00.278Z,26.33
2019-03-02T01:18:31.614Z,33.00
2019-03-02T01:21:03.878Z,28.30
2019-03-02T01:23:35.729Z,30.33
2019-03-02T01:26:06.824Z,27.47
2019-03-02T01:28:38.208Z,31.70
2019-03-02T01:31:09.305Z,31.30
2019-03-02T01:33:41.826Z,29.77
2019-03-02T01:36:12.977Z,28.53
2019-03-02T01:38:44.330Z,25.53
2019-03-02T01:41:17.676Z,25.50
2019-03-02T01:43:48.760Z,27.77
2019-03-02T01:46:19.910Z,27.60
2019-03-02T01:48:51.362Z,26.87
2019-03-02T01:51:23.171Z,27.07
2019-03-02T01:53:55.268Z,24.10
2019-03-02T01:56:26.415Z,25.60
2019-03-02T01:59:00.578Z,27.90
2019-03-02T02:01:30.854Z,26.80
2019-03-02T02:04:02.221Z,29.90
2019-03-02T02:06:33.338Z,30.27
2019-03-02T02:09:05.869Z,26.23
2019-03-02T02:11:39.670Z,30.63
2019-03-02T02:14:14.883Z,28.97
2019-03-02T02:16:44.876Z,23.50
2019-03-02T02:19:16.358Z,25.27
2019-03-02T02:21:47.436Z,27.47
2019-03-02T02:24:21.796Z,23.60
2019-03-02T02:26:51.682Z,25.90
2019-03-02T02:29:22.980Z,24.00
2019-03-02T02:31:54.053Z,22.03
2019-03-02T02:34:25.288Z,25.80
2019-03-02T02:36:58.177Z,24.53
2019-03-02T02:39:33.486Z,25.40
2019-03-02T02:42:05.144Z,23.57
2019-03-02T02:44:37.577Z,21.87
2019-03-02T02:47:12.211Z,28.10
2019-03-02T02:49:44.291Z,22.43
2019-03-02T02:52:14.719Z,24.93
2019-03-02T02:54:46.091Z,23.10
2019-03-02T02:57:17.344Z,21.07
2019-03-02T02:59:48.707Z,23.73
2019-03-02T03:02:19.802Z,22.97
2019-03-02T03:04:51.201Z,21.77
2019-03-02T03:07:22.288Z,34.20
2019-03-02T03:10:00.932Z,23.10
2019-03-02T03:12:33.741Z,21.10
2019-03-02T03:15:05.213Z,23.77
2019-03-02T03:17:36.451Z,20.57
2019-03-02T03:20:10.668Z,24.63
2019-03-02T03:22:41.048Z,21.93
2019-03-02T03:25:18.048Z,23.73
2019-03-02T03:27:52.047Z,24.13
2019-03-02T03:30:33.926Z,23.47
2019-03-02T03:32:59.566Z,23.00
2019-03-02T03:35:26.500Z,25.17
2019-03-02T03:37:57.593Z,23.00
2019-03-02T03:40:28.941Z,26.83
2019-03-02T03:43:03.329Z,27.27
2019-03-02T03:45:33.178Z,25.47
2019-03-02T03:48:04.247Z,25.30
2019-03-02T03:50:35.597Z,30.63
2019-03-02T03:53:06.706Z,29.10
2019-03-02T03:55:38.069Z,27.87
2019-03-02T03:58:09.170Z,30.67
2019-03-02T04:00:40.713Z,30.70
2019-03-02T04:03:13.805Z,27.30
2019-03-02T04:05:47.110Z,30.47
2019-03-02T04:08:18.824Z,27.90
2019-03-02T04:10:50.161Z,24.53
2019-03-02T04:13:21.431Z,25.30
2019-03-02T04:15:55.249Z,24.27
2019-03-02T04:18:58.191Z,27.47
2019-03-02T04:21:35.615Z,24.50
2019-03-02T04:24:06.810Z,23.53
2019-03-02T04:26:38.557Z,25.40
2019-03-02T04:29:11.767Z,25.87
2019-03-02T04:31:43.917Z,21.50
2019-03-02T04:34:21.019Z,23.90
2019-03-02T04:36:49.422Z,21.63
2019-03-02T04:39:20.468Z,21.23
2019-03-02T04:41:52.117Z,27.10
2019-03-02T04:44:25.871Z,22.07
2019-03-02T04:46:56.455Z,32.50
2019-03-02T04:49:27.803Z,27.20
2019-03-02T04:51:59.264Z,25.67
2019-03-02T04:54:30.622Z,27.10
2019-03-02T04:57:02.208Z,26.00
2019-03-02T04:59:33.371Z,22.47
2019-03-02T05:02:04.768Z,26.40
2019-03-02T05:04:35.894Z,25.50
2019-03-02T05:07:07.248Z,24.63
2019-03-02T05:09:38.426Z,25.67
2019-03-02T05:12:11.545Z,27.17
2019-03-02T05:14:42.679Z,26.27
2019-03-02T05:17:13.980Z,30.60
2019-03-02T05:19:45.237Z,28.10
2019-03-02T05:22:18.752Z,23.43
2019-03-02T05:24:49.678Z,31.30
2019-03-02T05:27:20.992Z,31.97
2019-03-02T05:29:54.459Z,28.90
2019-03-02T05:32:25.147Z,30.13
2019-03-02T05:34:56.296Z,29.80
2019-03-02T05:37:27.589Z,33.23
2019-03-02T05:39:58.717Z,30.97
2019-03-02T05:42:30.064Z,31.87
2019-03-02T05:45:02.464Z,34.03
2019-03-02T05:47:33.872Z,34.93
2019-03-02T05:50:06.542Z,31.60
2019-03-02T05:52:37.996Z,31.60
2019-03-02T05:55:09.613Z,32.07
2019-03-02T05:57:41.469Z,30.40
2019-03-02T06:00:13.704Z,33.23
2019-03-02T06:02:45.134Z,31.77
2019-03-02T06:05:16.193Z,31.87
2019-03-02T06:07:47.501Z,31.37
2019-03-02T06:10:21.658Z,34.10
2019-03-02T06:12:52.966Z,31.67
2019-03-02T06:15:24.301Z,31.20
2019-03-02T06:17:55.696Z,35.13
2019-03-02T06:20:27.038Z,33.17
2019-03-02T06:22:58.284Z,33.80
2019-03-02T06:25:29.463Z,34.60
2019-03-02T06:28:00.908Z,39.70
2019-03-02T06:30:32.010Z,35.60
2019-03-02T06:33:05.115Z,33.60
2019-03-02T06:35:36.162Z,37.60
2019-03-02T06:38:07.622Z,36.60
2019-03-02T06:40:50.785Z,33.27
2019-03-02T06:43:22.821Z,31.90
2019-03-02T06:45:54.042Z,38.53
2019-03-02T06:48:25.509Z,32.67
2019-03-02T06:50:56.824Z,32.00
2019-03-02T06:53:28.050Z,39.07
2019-03-02T06:56:00.713Z,37.43
2019-03-02T06:58:32.324Z,38.83
2019-03-02T07:01:03.466Z,34.30
2019-03-02T07:03:34.832Z,30.33
2019-03-02T07:06:08.581Z,31.60
2019-03-02T07:08:39.181Z,32.33
2019-03-02T07:11:10.387Z,32.80
2019-03-02T07:13:42.803Z,36.03
2019-03-02T07:16:16.545Z,33.30
2019-03-02T07:19:00.378Z,35.33
2019-03-02T07:21:31.708Z,35.07
2019-03-02T07:24:03.136Z,42.80
2019-03-02T07:26:35.212Z,34.13
2019-03-02T07:29:06.652Z,30.63
2019-03-02T07:31:37.812Z,34.53
2019-03-02T07:34:09.834Z,34.67
2019-03-02T07:36:41.109Z,37.27
2019-03-02T07:39:12.663Z,38.30
2019-03-02T07:41:43.756Z,33.60
2019-03-02T07:44:15.083Z,37.37
2019-03-02T07:46:47.939Z,42.20
2019-03-02T07:49:19.470Z,39.83
2019-03-02T07:51:50.732Z,39.27
2019-03-02T07:54:22.416Z,36.50
2019-03-02T07:56:53.528Z,39.93
2019-03-02T07:59:26.484Z,41.33
2019-03-02T08:01:57.808Z,41.33
2019-03-02T08:04:29.107Z,34.73
2019-03-02T08:07:01.483Z,40.83
2019-03-02T08:09:33.058Z,41.27
2019-03-02T08:12:04.203Z,40.00
2019-03-02T08:14:36.496Z,40.90
2019-03-02T08:17:09.814Z,41.80
2019-03-02T08:19:40.927Z,38.53
2019-03-02T08:22:12.180Z,39.93
2019-03-02T08:24:43.776Z,41.90
2019-03-02T08:27:15.805Z,35.27
2019-03-02T08:29:47.058Z,34.03
2019-03-02T08:32:21.156Z,37.87
2019-03-02T08:34:51.224Z,33.77
2019-03-02T08:37:22.337Z,37.77
2019-03-02T08:40:13.517Z,36.00
2019-03-02T08:42:44.741Z,31.77
2019-03-02T08:45:16.845Z,33.23
2019-03-02T08:47:48.069Z,32.40
2019-03-02T08:50:19.374Z,32.47
2019-03-02T08:52:51.494Z,29.57
2019-03-02T08:55:23.997Z,35.13
2019-03-02T08:57:57.406Z,35.47
2019-03-02T09:00:28.138Z,36.00
2019-03-02T09:03:00.417Z,37.13
2019-03-02T09:05:43.650Z,33.50
2019-03-02T09:08:05.004Z,35.13
2019-03-02T09:10:37.049Z,34.30
2019-03-02T09:13:08.413Z,35.37
2019-03-02T09:15:39.788Z,35.73
2019-03-02T09:18:10.944Z,38.90
2019-03-02T09:20:43.410Z,35.60
2019-03-02T09:23:15.171Z,33.73
2019-03-02T09:25:46.632Z,36.53
2019-03-02T09:28:17.736Z,39.03
2019-03-02T09:30:49.030Z,39.47
2019-03-02T09:33:20.125Z,36.33
2019-03-02T09:35:54.762Z,40.63
2019-03-02T09:38:24.240Z,41.83
2019-03-02T09:40:55.644Z,38.30
2019-03-02T09:43:26.744Z,47.10
2019-03-02T09:45:58.064Z,38.40
2019-03-02T09:48:29.351Z,36.73
2019-03-02T09:51:00.584Z,34.53
2019-03-02T09:53:31.785Z,34.47
2019-03-02T09:56:03.130Z,40.40
2019-03-02T09:58:35.618Z,39.37
2019-03-02T10:01:07.053Z,37.70
2019-03-02T10:03:38.228Z,37.53
2019-03-02T10:06:09.550Z,33.00
2019-03-02T10:08:42.362Z,38.80
2019-03-02T10:11:15.334Z,37.90
2019-03-02T10:13:47.456Z,39.67
2019-03-02T10:16:19.070Z,40.43
2019-03-02T10:18:50.952Z,37.53
2019-03-02T10:21:22.355Z,41.83
2019-03-02T10:23:53.436Z,36.20
2019-03-02T10:26:24.853Z,37.07
2019-03-02T10:28:55.946Z,37.23
2019-03-02T10:31:27.282Z,37.23
2019-03-02T10:33:58.438Z,33.13
2019-03-02T10:36:32.363Z,37.10
2019-03-02T10:39:04.118Z,31.00
2019-03-02T10:41:37.146Z,36.37
2019-03-02T10:44:08.246Z,30.80
2019-03-02T10:46:39.576Z,29.53
2019-03-02T10:49:13.110Z,28.30
2019-03-02T10:51:43.708Z,26.03
2019-03-02T10:54:14.841Z,25.93
2019-03-02T10:56:46.292Z,30.97
2019-03-02T10:59:17.482Z,30.17
2019-03-02T11:01:48.764Z,25.60
2019-03-02T11:04:40.973Z,32.03
2019-03-02T11:07:31.233Z,25.37
2019-03-02T11:10:30.378Z,24.43
2019-03-02T11:13:20.441Z,25.20
2019-03-02T11:16:10.728Z,27.93
2019-03-02T11:18:54.749Z,28.93
2019-03-02T11:21:43.244Z,24.40
2019-03-02T11:24:33.500Z,24.50
2019-03-02T11:27:23.588Z,23.63
2019-03-02T11:30:16.620Z,22.87
2019-03-02T11:33:06.656Z,27.73
2019-03-02T11:35:55.460Z,22.07
2019-03-02T11:38:37.276Z,23.50
2019-03-02T11:41:21.200Z,24.70
2019-03-02T11:44:18.882Z,25.93
2019-03-02T11:47:09.040Z,20.83
2019-03-02T11:50:05.154Z,19.57
2019-03-02T11:52:50.487Z,21.17
2019-03-02T11:55:47.128Z,21.43
2019-03-02T11:58:36.907Z,22.00
2019-03-02T12:01:21.960Z,21.73
2019-03-02T12:04:19.832Z,24.10
2019-03-02T12:07:08.368Z,21.00
2019-03-02T12:10:10.565Z,22.93
2019-03-02T12:13:03.884Z,21.20
2019-03-02T12:16:01.665Z,23.60
2019-03-02T12:18:40.137Z,20.10
2019-03-02T12:21:29.646Z,21.57
2019-03-02T12:24:23.281Z,19.50
2019-03-02T12:27:18.847Z,22.40
2019-03-02T12:30:00.342Z,18.00
2019-03-02T12:32:56.794Z,20.37
2019-03-02T12:35:45.646Z,16.83
2019-03-02T12:38:49.096Z,18.87
2019-03-02T12:41:38.304Z,21.10
2019-03-02T12:44:34.691Z,22.13
2019-03-02T12:47:22.114Z,23.07
2019-03-02T12:50:24.566Z,21.10
2019-03-02T12:53:16.141Z,29.50
2019-03-02T12:56:06.810Z,23.07
2019-03-02T12:58:55.370Z,23.83
2019-03-02T13:01:45.005Z,23.93
2019-03-02T13:04:34.101Z,21.57
2019-03-02T13:07:36.406Z,29.50
2019-03-02T13:10:45.541Z,24.33
2019-03-02T13:13:30.158Z,27.20
2019-03-02T13:16:23.797Z,27.77
2019-03-02T13:19:22.973Z,24.93
2019-03-02T13:22:19.099Z,22.77
2019-03-02T13:25:08.250Z,27.90
2019-03-02T13:27:49.039Z,27.33
2019-03-02T13:30:39.120Z,24.97
2019-03-02T13:33:47.757Z,26.33
2019-03-02T13:36:31.792Z,27.03
2019-03-02T13:39:18.744Z,26.93
2019-03-02T13:42:23.956Z,26.47
2019-03-02T13:45:26.413Z,30.37
2019-03-02T13:48:17.755Z,27.23
2019-03-02T13:50:58.408Z,26.60
2019-03-02T13:54:06.696Z,26.20
2019-03-02T13:56:55.988Z,26.50
2019-03-02T13:59:51.979Z,27.80
2019-03-02T14:02:45.395Z,27.53
2019-03-02T14:05:49.153Z,21.30
2019-03-02T14:08:29.772Z,20.77
2019-03-02T14:11:09.162Z,22.43
2019-03-02T14:13:59.488Z,20.30
2019-03-02T14:16:55.252Z,18.67
2019-03-02T14:19:42.057Z,19.80
2019-03-02T14:22:32.767Z,19.73
2019-03-02T14:25:31.952Z,20.37
2019-03-02T14:28:12.332Z,18.77
2019-03-02T14:31:02.607Z,20.83
2019-03-02T14:33:52.188Z,16.77
2019-03-02T14:36:45.434Z,19.63
2019-03-02T14:39:44.796Z,16.80
2019-03-02T14:42:35.043Z,14.63
2019-03-02T14:45:15.945Z,14.30
2019-03-02T14:48:37.624Z,12.73
2019-03-02T14:51:34.696Z,8.50
2019-03-02T14:54:30.903Z,10.20
2019-03-02T14:57:27.256Z,10.37
2019-03-02T15:00:07.842Z,10.83
2019-03-02T15:03:02.324Z,10.50
2019-03-02T15:05:53.198Z,10.90
2019-03-02T15:08:41.255Z,9.83
2019-03-02T15:11:36.442Z,8.30
2019-03-02T15:14:26.446Z,11.97
2019-03-02T15:17:05.170Z,9.90
2019-03-02T15:19:58.291Z,10.97
2019-03-02T15:22:48.520Z,10.23
2019-03-02T15:25:56.684Z,11.90
2019-03-02T15:28:59.123Z,11.40
2019-03-02T15:31:46.970Z,12.20
2019-03-02T15:34:31.196Z,10.60
2019-03-02T15:37:24.442Z,13.90
2019-03-02T15:40:07.090Z,10.10
2019-03-02T15:42:58.494Z,13.70
2019-03-02T15:45:40.318Z,11.60
2019-03-02T15:48:28.624Z,10.60
2019-03-02T15:51:22.314Z,14.53
2019-03-02T15:54:07.010Z,12.10
2019-03-02T15:56:55.828Z,11.80
2019-03-02T15:59:54.306Z,15.73
2019-03-02T16:02:50.657Z,12.40
2019-03-02T16:05:44.103Z,11.00
2019-03-02T16:08:35.869Z,11.60
2019-03-02T16:11:44.411Z,9.23
2019-03-02T16:14:36.342Z,10.27
2019-03-02T16:17:17.102Z,10.97
2019-03-02T16:20:18.462Z,10.67
2019-03-02T16:23:14.442Z,10.43
2019-03-02T16:26:04.795Z,10.93
2019-03-02T16:28:55.110Z,11.67
2019-03-02T16:31:45.177Z,12.20
2019-03-02T16:34:48.447Z,13.20
2019-03-02T16:37:41.630Z,10.97
2019-03-02T16:40:35.127Z,10.23
2019-03-02T16:43:30.848Z,14.37
2019-03-02T16:46:10.364Z,10.73
2019-03-02T16:48:54.787Z,10.60
2019-03-02T16:52:06.277Z,10.70
2019-03-02T16:54:56.715Z,9.90
2019-03-02T16:57:52.193Z,13.40
2019-03-02T17:00:49.554Z,14.70
2019-03-02T17:03:43.848Z,12.60
2019-03-02T17:06:28.286Z,11.63
2019-03-02T17:09:16.962Z,9.20
2019-03-02T17:12:12.298Z,12.33
2019-03-02T17:15:01.704Z,10.37
2019-03-02T17:18:00.128Z,25.00
2019-03-02T17:20:53.195Z,11.20
2019-03-02T17:23:42.588Z,11.37
2019-03-02T17:26:29.294Z,9.30
2019-03-02T17:29:18.317Z,11.40
2019-03-02T17:32:06.870Z,14.83
2019-03-02T17:35:01.166Z,8.97
2019-03-02T17:37:57.970Z,13.17
2019-03-02T17:40:51.303Z,11.80
2019-03-02T17:43:46.578Z,10.77
2019-03-02T17:46:32.304Z,9.40
2019-03-02T17:49:28.802Z,10.97
2019-03-02T17:52:09.294Z,12.07
2019-03-02T17:54:51.239Z,13.20
2019-03-02T17:57:43.894Z,11.73
2019-03-02T18:00:30.272Z,14.47
2019-03-02T18:03:38.882Z,18.40
2019-03-02T18:06:27.314Z,16.13
2019-03-02T18:09:06.028Z,21.53
2019-03-02T18:12:06.483Z,13.13
2019-03-02T18:14:56.794Z,13.63
2019-03-02T18:17:35.817Z,14.20
2019-03-02T18:20:08.243Z,15.77
2019-03-02T18:22:39.438Z,12.70
2019-03-02T18:25:11.945Z,12.63
2019-03-02T18:27:44.055Z,12.40
2019-03-02T18:30:16.876Z,21.53
2019-03-02T18:32:49.687Z,10.57
2019-03-02T18:35:21.086Z,14.23
2019-03-02T18:37:52.239Z,13.30
2019-03-02T18:40:23.704Z,16.37
2019-03-02T18:42:54.852Z,19.70
2019-03-02T18:45:26.163Z,19.70
2019-03-02T18:47:59.279Z,13.47
2019-03-02T18:50:39.918Z,14.20
2019-03-02T18:53:11.062Z,16.60
2019-03-02T18:55:42.414Z,21.10
2019-03-02T18:58:13.595Z,15.87
2019-03-02T19:00:48.080Z,16.87
2019-03-02T19:03:20.961Z,15.60
2019-03-02T19:05:52.393Z,14.70
2019-03-02T19:08:25.379Z,15.40
2019-03-02T19:10:57.307Z,15.73
2019-03-02T19:13:28.728Z,16.70
2019-03-02T19:16:00.076Z,16.07
2019-03-02T19:18:31.328Z,14.93
2019-03-02T19:21:02.874Z,16.60
2019-03-02T19:23:34.220Z,14.43
2019-03-02T19:26:05.782Z,12.57
2019-03-02T19:28:36.914Z,18.00
2019-03-02T19:31:08.178Z,14.77
2019-03-02T19:33:39.293Z,16.57
2019-03-02T19:36:10.773Z,13.40
2019-03-02T19:38:41.959Z,15.70
2019-03-02T19:41:13.362Z,12.23
2019-03-02T19:43:44.774Z,14.83
2019-03-02T19:46:16.223Z,20.93
2019-03-02T19:48:47.438Z,15.63
2019-03-02T19:51:18.781Z,14.40
2019-03-02T19:53:50.106Z,15.23
2019-03-02T19:56:21.668Z,14.27
2019-03-02T19:58:52.817Z,15.30
2019-03-02T20:01:24.180Z,12.87
2019-03-02T20:03:55.535Z,15.63
2019-03-02T20:06:26.872Z,14.43
2019-03-02T20:08:58.206Z,16.17
2019-03-02T20:11:29.968Z,16.70
2019-03-02T20:14:01.210Z,16.13
2019-03-02T20:16:32.766Z,22.30
2019-03-02T20:19:03.990Z,15.33
2019-03-02T20:21:35.486Z,17.77
2019-03-02T20:24:07.704Z,15.40
2019-03-02T20:26:39.492Z,14.30
2019-03-02T20:29:10.652Z,16.47
2019-03-02T20:31:43.174Z,16.33
2019-03-02T20:34:14.394Z,14.70
2019-03-02T20:36:45.935Z,14.80
2019-03-02T20:39:17.385Z,14.43
2019-03-02T20:41:49.040Z,14.20
2019-03-02T20:44:21.308Z,14.63
2019-03-02T20:46:52.868Z,17.93
2019-03-02T20:49:24.192Z,14.27
2019-03-02T20:51:56.790Z,13.17
2019-03-02T20:54:27.994Z,17.23
2019-03-02T20:56:59.391Z,13.77
2019-03-02T20:59:30.577Z,11.30
2019-03-02T21:02:02.191Z,14.73
2019-03-02T21:04:33.532Z,12.00
2019-03-02T21:07:04.792Z,12.97
2019-03-02T21:09:36.084Z,15.80
2019-03-02T21:12:07.674Z,11.10
2019-03-02T21:14:38.834Z,13.07
2019-03-02T21:17:10.374Z,10.00
2019-03-02T21:19:41.536Z,14.67
2019-03-02T21:22:12.892Z,13.13
2019-03-02T21:24:44.100Z,18.27
2019-03-02T21:27:17.240Z,9.57
2019-03-02T21:29:49.714Z,14.87
2019-03-02T21:32:20.994Z,9.67
2019-03-02T21:34:52.203Z,19.80
2019-03-02T21:37:23.518Z,10.40
2019-03-02T21:39:54.692Z,16.80
2019-03-02T21:42:26.134Z,8.57
2019-03-02T21:44:58.665Z,11.03
2019-03-02T21:47:30.054Z,11.20
2019-03-02T21:50:01.503Z,8.13
2019-03-02T21:52:34.502Z,12.87
2019-03-02T21:55:05.794Z,11.40
2019-03-02T21:57:37.550Z,10.83
2019-03-02T22:00:14.475Z,8.90
2019-03-02T22:02:46.232Z,7.90
2019-03-02T22:05:17.331Z,10.77
2019-03-02T22:07:48.662Z,13.43
2019-03-02T22:10:24.631Z,8.70
2019-03-02T22:12:56.049Z,9.83
2019-03-02T22:15:27.218Z,13.50
2019-03-02T22:17:58.734Z,9.00
2019-03-02T22:20:29.904Z,9.23
2019-03-02T22:23:01.087Z,10.47
2019-03-02T22:25:33.354Z,11.10
2019-03-02T22:28:04.746Z,13.07
2019-03-02T22:30:35.836Z,10.43
2019-03-02T22:33:07.139Z,10.90
2019-03-02T22:35:38.224Z,12.27
2019-03-02T22:38:09.556Z,12.57
2019-03-02T22:40:40.722Z,9.67
2019-03-02T22:43:11.975Z,11.77
2019-03-02T22:45:43.092Z,9.50
2019-03-02T22:48:14.526Z,12.47
2019-03-02T22:50:46.820Z,10.93
2019-03-02T22:53:18.350Z,10.33
2019-03-02T22:55:49.534Z,13.40
2019-03-02T22:58:20.951Z,13.90
2019-03-02T23:01:32.550Z,10.63
2019-03-02T23:04:04.152Z,14.53
2019-03-02T23:06:35.268Z,15.63
2019-03-02T23:09:11.952Z,12.97
2019-03-02T23:11:43.617Z,13.70
2019-03-02T23:14:16.355Z,14.43
2019-03-02T23:16:47.614Z,13.47
2019-03-02T23:19:19.059Z,13.40
2019-03-02T23:21:50.197Z,14.90
2019-03-02T23:24:21.562Z,12.57
2019-03-02T23:26:52.687Z,16.63
2019-03-02T23:29:24.046Z,13.17
2019-03-02T23:31:55.329Z,16.20
2019-03-02T23:34:36.885Z,16.47
2019-03-02T23:37:01.355Z,13.53
2019-03-02T23:39:32.825Z,14.33
2019-03-02T23:42:03.915Z,13.50
2019-03-02T23:44:35.311Z,13.70
2019-03-02T23:47:06.427Z,15.80
2019-03-02T23:49:37.911Z,13.27
2019-03-02T23:52:08.987Z,15.77
2019-03-02T23:54:40.396Z,13.83
2019-03-02T23:57:11.527Z,16.13
2019-03-02T23:59:43.202Z,14.97
